Kullu Bhuntar Airport

Current Flights

Departures
Number Departure To Airline
 CD807 08:30 +113  Chandigarh  Alliance Air
 9I806 11:55  Delhi  Alliance Air
 CD807 08:30  Chandigarh  Alliance Air
 9I807 08:30  Chandigarh  Alliance Air
 CD807 08:30  Chandigarh  Alliance Air
Arrivals
Number Arrival From Airline
 CD808 10:25  Chandigarh  Alliance Air
 9I808 11:30  Chandigarh  Alliance Air
 CD808 10:25  Chandigarh  Alliance Air
 9I808 10:25  Chandigarh  Alliance Air
 CD808 10:25  Chandigarh  Alliance Air
Info
Name: Kullu Bhuntar Airport
Identifier:  KUU/VIBR
Local Time:  18. Jun 10:23
City
Flights per Day
4 flights
Distance: 228km (142mi)
Punctuality
53% (1 flights per day delayed)
Delay Average: 1 minutes
Current Weather
 19 C (Humidity: 77%)
  0kt (0km/h / 0mph) from 0°
  Few clouds at 3,000 feet (914 meter)
  Broken clouds at 8,000 feet (2,438 meter)
  6km (3 mi.)
 METAR VIBR 180330Z 00000KT 6000 FEW030 BKN080 19/15 Q1010

Current Delays

Departures
N/A
Arrivals
N/A

Destinations

Top Destinations
Airport Flights
per week
Seats
per week
  Delhi (DEL) 13 718 1 102
  Chandigarh (IXC) 10 571 1 81

Airlines & Planes

Top Airlines
Airline Flights
per Day
Seats
per Day
  Alliance Air 3 184
Top Plane Types
Model Flights Seats
ATR 76-600 3.4/day 184/day 184.33333333333334